createdAt,value
2022-12-11T06:17:24.896Z,0.373
2022-12-11T06:26:35.776Z,0.747
2022-12-11T06:30:37.338Z,1.494
2022-12-11T06:33:34.036Z,2.614
2022-12-11T06:38:44.238Z,4.855
2022-12-11T06:44:05.668Z,10.831
2022-12-11T06:48:51.343Z,20.169
2022-12-11T06:51:29.460Z,26.892
2022-12-11T06:57:09.949Z,44.82
2022-12-11T07:03:46.522Z,70.965
2022-12-11T07:06:40.009Z,81.796
2022-12-11T07:09:28.333Z,99.351
2022-12-11T07:14:59.898Z,132.219
2022-12-11T07:20:24.902Z,168.075
2022-12-11T07:25:24.977Z,183.015
2022-12-11T07:30:25.117Z,164.34
2022-12-11T07:35:15.908Z,158.364
2022-12-11T07:37:49.036Z,164.34
2022-12-11T07:42:48.641Z,182.268
2022-12-11T07:47:48.746Z,258.462
2022-12-11T07:52:48.851Z,394.416
2022-12-11T07:57:48.976Z,537.84
2022-12-11T08:02:49.072Z,968.112
2022-12-11T08:06:18.251Z,1105.56
2022-12-11T08:11:28.375Z,1063.728
2022-12-11T08:16:29.601Z,1147.392
2022-12-11T08:21:29.701Z,1248.984
2022-12-11T08:26:38.977Z,1374.48
2022-12-11T08:31:38.150Z,1476.072
2022-12-11T08:36:38.177Z,1601.568
2022-12-11T08:41:38.287Z,1804.752
2022-12-11T08:44:42.037Z,1948.176
2022-12-11T08:48:11.200Z,2007.936
2022-12-11T08:53:10.435Z,2521.872
2022-12-11T08:56:24.359Z,2665.296
2022-12-11T09:01:30.344Z,2294.784
2022-12-11T09:06:40.349Z,2270.88
2022-12-11T09:09:49.247Z,2342.592
2022-12-11T09:14:45.034Z,2533.824
2022-12-11T09:17:23.209Z,2976.048
2022-12-11T09:20:52.366Z,3179.232
2022-12-11T09:24:41.928Z,2952.144
2022-12-11T09:28:00.894Z,2952.144
2022-12-11T09:32:31.214Z,2916.288
2022-12-11T09:35:04.257Z,2772.864
2022-12-11T09:37:47.480Z,2497.968
2022-12-11T09:40:51.169Z,2223.072
2022-12-11T09:43:39.448Z,2139.408
2022-12-11T09:46:24.627Z,2043.792
2022-12-11T09:49:34.864Z,1960.128
2022-12-11T09:52:38.515Z,2067.696
2022-12-11T09:55:42.205Z,2474.064
2022-12-11T09:58:25.433Z,2725.056
2022-12-11T10:01:44.365Z,2282.832
2022-12-11T10:04:32.836Z,2330.64
2022-12-11T10:07:10.917Z,2402.352
2022-12-11T10:11:41.246Z,2988
2022-12-11T10:14:28.283Z,3274.848
2022-12-11T10:17:01.288Z,3203.136
2022-12-11T10:19:49.591Z,3466.08
2022-12-11T10:22:58.308Z,3585.6
2022-12-11T10:27:03.194Z,4039.776
2022-12-11T10:29:46.435Z,4470.048
2022-12-11T10:32:39.927Z,4756.896
2022-12-11T10:35:28.310Z,4972.032
2022-12-11T10:39:02.634Z,5067.648
2022-12-11T10:41:45.848Z,5234.976
2022-12-11T10:44:29.132Z,5760.864
2022-12-11T10:47:53.218Z,5808.672
2022-12-11T10:51:17.216Z,5426.208
2022-12-11T10:53:55.431Z,5354.496
2022-12-11T10:57:24.544Z,5258.88
2022-12-11T10:59:55.777Z,5091.552
2022-12-11T11:02:28.880Z,5378.4
2022-12-11T11:05:52.906Z,5904.288
2022-12-11T11:08:41.253Z,5904.288
2022-12-11T11:11:55.104Z,5928.192
2022-12-11T11:14:28.167Z,5713.056
2022-12-11T11:17:18.599Z,5521.824
2022-12-11T11:22:18.003Z,5784.768
2022-12-11T11:26:56.499Z,5689.152
2022-12-11T11:35:13.702Z,5736.96
2022-12-11T11:38:47.600Z,5354.496
2022-12-11T11:41:25.774Z,5019.84
2022-12-11T11:44:49.822Z,4732.992
2022-12-11T11:47:28.008Z,4804.704
2022-12-11T11:51:12.424Z,5784.768
2022-12-11T11:54:16.091Z,5354.496
2022-12-11T11:57:45.295Z,4135.392
2022-12-11T12:00:38.732Z,4159.296
2022-12-11T12:03:16.868Z,4565.664
2022-12-11T12:05:55.033Z,5593.536
2022-12-11T12:08:43.342Z,5234.976
2022-12-11T12:12:12.514Z,4326.624
2022-12-11T12:14:52.296Z,3776.832
2022-12-11T12:17:33.988Z,3346.56
2022-12-11T12:20:42.691Z,3298.752
2022-12-11T12:23:41.271Z,3155.328
2022-12-11T12:28:57.559Z,2904.336
2022-12-11T12:31:30.619Z,2964.096
2022-12-11T12:34:08.772Z,3346.56
2022-12-11T12:36:46.870Z,3418.272
2022-12-11T12:39:19.984Z,4565.664
2022-12-11T12:43:40.129Z,5234.976
2022-12-11T12:46:18.284Z,3418.272
2022-12-11T12:49:06.551Z,2689.2
2022-12-11T12:54:36.509Z,2784.816
2022-12-11T12:57:09.591Z,3274.848
2022-12-11T13:03:31.254Z,3752.928
2022-12-11T13:06:22.829Z,5497.92
2022-12-11T13:09:53.795Z,3944.16
2022-12-11T13:12:31.981Z,3944.16
2022-12-11T13:17:12.484Z,5043.744
2022-12-11T13:19:45.585Z,3609.504
2022-12-11T13:22:23.665Z,3227.04
2022-12-11T13:25:47.811Z,2964.096
2022-12-11T13:29:11.805Z,2832.624
2022-12-11T13:32:05.285Z,2713.104
2022-12-11T13:35:09.169Z,2509.92
2022-12-11T13:38:02.368Z,2330.64
2022-12-11T13:41:31.505Z,2055.744
2022-12-11T13:44:24.930Z,1840.608
2022-12-11T13:47:23.491Z,1625.472
2022-12-11T13:50:52.719Z,1434.24
2022-12-11T13:53:30.866Z,1248.984
2022-12-11T13:57:51.002Z,1141.416
2022-12-11T14:00:39.333Z,997.992
2022-12-11T14:03:32.821Z,878.472
2022-12-11T14:06:14.825Z,860.544
2022-12-11T14:08:44.018Z,824.688
2022-12-11T14:12:18.284Z,749.988
2022-12-11T14:17:48.549Z,651.384
2022-12-11T14:20:17.782Z,594.612
2022-12-11T14:23:06.129Z,588.636
2022-12-11T14:25:59.654Z,582.66
2022-12-11T14:29:23.680Z,585.648
2022-12-11T14:32:01.891Z,585.648
2022-12-11T14:34:40.020Z,561.744
2022-12-11T14:37:28.415Z,516.924
2022-12-11T14:40:11.919Z,454.176
2022-12-11T14:43:05.134Z,403.38
2022-12-11T14:45:53.564Z,346.608
2022-12-11T14:49:00.723Z,286.848
2022-12-11T14:51:30.205Z,222.606
2022-12-11T14:55:04.415Z,153.882
2022-12-11T14:59:31.979Z,112.05
2022-12-11T15:02:02.830Z,97.857
2022-12-11T15:06:38.241Z,67.603
2022-12-11T15:12:44.246Z,34.735
2022-12-11T15:15:22.476Z,27.265
2022-12-11T15:21:43.433Z,11.205
2022-12-11T15:25:07.573Z,7.47
2022-12-11T15:27:45.730Z,5.229
2022-12-11T15:32:50.355Z,2.241
2022-12-11T15:40:43.193Z,0.373
2022-12-11T15:50:43.336Z,0
